Time;durP1;ratioP1;P1;durP2;ratioP2;P2;SDS_P1;SDS_P2;PMS_P1;PMS_P2;Temp;Humidity;BMP_temperature;BMP_pressure;BME280_temperature;BME280_humidity;BME280_pressure;Samples;Min_cycle;Max_cycle;Signal;HPM_P1;HPM_P2
2020/12/21 00:00:58;;;;;;;11.20;5.50;;;17.40;62.50;;;;;;5042736;28;20192;-83
2020/12/21 00:03:28;;;;;;;10.65;5.18;;;17.40;62.30;;;;;;5059134;28;20170;-84
2020/12/21 00:06:03;;;;;;;7.70;4.90;;;17.30;62.30;;;;;;5042816;28;20158;-85
2020/12/21 00:08:38;;;;;;;10.38;5.38;;;17.40;62.40;;;;;;5059070;28;20241;-85
2020/12/21 00:11:05;;;;;;;8.52;4.95;;;17.30;62.30;;;;;;5042946;28;20173;-84
2020/12/21 00:13:33;;;;;;;10.57;4.97;;;17.30;62.30;;;;;;5059001;28;20595;-83
2020/12/21 00:16:05;;;;;;;10.07;4.90;;;17.40;62.30;;;;;;5042225;28;20197;-84
2020/12/21 00:18:36;;;;;;;8.15;5.05;;;17.30;62.40;;;;;;5041781;28;20151;-84
2020/12/21 00:21:09;;;;;;;10.45;5.22;;;17.40;62.30;;;;;;5042541;28;20657;-84
2020/12/21 00:23:35;;;;;;;8.63;5.05;;;17.30;62.30;;;;;;5057660;28;20169;-85
2020/12/21 00:26:10;;;;;;;8.93;4.90;;;17.30;62.20;;;;;;5041616;28;20233;-84
2020/12/21 00:28:37;;;;;;;7.63;4.90;;;17.40;62.10;;;;;;5041639;28;20173;-84
2020/12/21 00:31:08;;;;;;;8.43;5.30;;;17.40;62.10;;;;;;5058368;28;20170;-84
2020/12/21 00:33:42;;;;;;;10.10;4.68;;;17.40;62.30;;;;;;5057422;28;20170;-83
2020/12/21 00:36:10;;;;;;;9.15;4.97;;;17.30;62.30;;;;;;5041532;28;20213;-85
2020/12/21 00:38:45;;;;;;;9.18;4.93;;;17.30;62.30;;;;;;5058035;28;20188;-84
2020/12/21 00:41:18;;;;;;;9.13;5.10;;;17.30;62.50;;;;;;5058765;28;20204;-85
2020/12/21 00:43:48;;;;;;;8.32;4.95;;;17.30;62.50;;;;;;5041518;28;20170;-84
2020/12/21 00:46:24;;;;;;;9.52;5.18;;;17.30;62.40;;;;;;5041714;28;20162;-84
2020/12/21 00:48:55;;;;;;;11.30;5.60;;;17.40;62.60;;;;;;5040482;28;20172;-85
2020/12/21 00:51:23;;;;;;;8.85;5.07;;;17.20;62.30;;;;;;5041117;28;20166;-84
2020/12/21 00:53:51;;;;;;;8.77;4.88;;;17.30;62.40;;;;;;5040857;28;20173;-85
2020/12/21 00:56:19;;;;;;;8.30;4.88;;;17.30;62.70;;;;;;5057764;28;20162;-84
2020/12/21 00:58:59;;;;;;;8.82;5.00;;;17.30;62.40;;;;;;5040859;28;20173;-85
2020/12/21 01:01:29;;;;;;;7.20;4.65;;;17.30;62.50;;;;;;5041639;28;20216;-85
2020/12/21 01:04:05;;;;;;;9.70;5.00;;;17.30;62.40;;;;;;5040777;28;20227;-85
2020/12/21 01:06:33;;;;;;;8.57;4.57;;;17.30;62.40;;;;;;5057254;28;20165;-84
2020/12/21 01:09:02;;;;;;;8.50;4.78;;;17.30;62.40;;;;;;5040529;28;20162;-85
2020/12/21 01:11:33;;;;;;;10.73;5.47;;;17.30;62.30;;;;;;5057830;28;20184;-85
2020/12/21 01:14:08;;;;;;;7.53;4.72;;;17.30;62.40;;;;;;5057224;28;20166;-85
2020/12/21 01:16:38;;;;;;;8.95;4.97;;;17.30;62.50;;;;;;5057361;28;20161;-84
2020/12/21 01:19:10;;;;;;;9.13;4.95;;;17.30;62.60;;;;;;5040896;28;20239;-84
2020/12/21 01:21:39;;;;;;;8.63;4.82;;;17.30;62.30;;;;;;5057273;28;20194;-85
2020/12/21 01:24:14;;;;;;;8.68;4.82;;;17.30;62.30;;;;;;5057777;28;20162;-85
2020/12/21 01:26:41;;;;;;;8.18;5.00;;;17.40;62.30;;;;;;5057017;28;20169;-84
2020/12/21 01:29:19;;;;;;;9.07;4.78;;;17.30;62.30;;;;;;5057378;28;20162;-85
2020/12/21 01:31:45;;;;;;;9.43;4.65;;;17.30;62.40;;;;;;5040421;28;20176;-84
2020/12/21 01:34:15;;;;;;;8.77;4.68;;;17.40;62.30;;;;;;5056027;28;20169;-84
2020/12/21 01:36:47;;;;;;;9.30;4.65;;;17.30;63.30;;;;;;5002698;28;20203;-85
2020/12/21 01:39:20;;;;;;;9.52;5.22;;;17.30;62.30;;;;;;5018479;28;20167;-84
2020/12/21 01:41:48;;;;;;;8.63;4.90;;;17.30;62.40;;;;;;5019537;28;20203;-84
2020/12/21 01:44:15;;;;;;;7.50;4.70;;;17.40;62.50;;;;;;5002816;28;20159;-85
2020/12/21 01:46:42;;;;;;;8.43;4.85;;;17.30;62.30;;;;;;5018819;28;20625;-85
2020/12/21 01:49:15;;;;;;;8.15;4.53;;;17.30;62.40;;;;;;5018598;28;20219;-86
2020/12/21 01:51:48;;;;;;;7.70;4.75;;;17.30;62.60;;;;;;5018594;28;20218;-84
2020/12/21 01:54:23;;;;;;;9.35;5.43;;;17.30;62.40;;;;;;5017974;28;20179;-83
2020/12/21 01:56:52;;;;;;;8.60;4.75;;;17.40;62.20;;;;;;5018202;28;20163;-85
2020/12/21 01:59:20;;;;;;;8.68;4.72;;;17.30;62.30;;;;;;5018631;28;20171;-85
2020/12/21 02:01:53;;;;;;;10.07;4.90;;;17.30;62.40;;;;;;5034876;28;20198;-84
2020/12/21 02:04:37;;;;;;;7.68;4.82;;;17.30;62.40;;;;;;5034853;28;20175;-84
2020/12/21 02:07:08;;;;;;;7.20;4.40;;;17.30;62.40;;;;;;4969215;28;20179;-85
2020/12/21 02:09:47;;;;;;;8.95;4.90;;;17.40;62.20;;;;;;5017952;28;20188;-85
2020/12/21 02:12:27;;;;;;;10.65;4.95;;;17.40;62.10;;;;;;5001898;28;20160;-84
2020/12/21 02:14:53;;;;;;;7.57;4.93;;;17.30;62.40;;;;;;5017857;28;20194;-85
2020/12/21 02:17:26;;;;;;;12.00;5.18;;;17.30;62.30;;;;;;5018177;28;20247;-84
2020/12/21 02:19:57;;;;;;;8.77;4.32;;;17.30;62.40;;;;;;5001289;28;20278;-85
2020/12/21 02:22:24;;;;;;;7.80;4.68;;;17.30;62.40;;;;;;4985190;28;20162;-85
2020/12/21 02:24:54;;;;;;;11.18;4.80;;;17.30;62.40;;;;;;4985225;28;20178;-84
2020/12/21 02:27:23;;;;;;;8.75;4.75;;;17.30;62.50;;;;;;5016887;28;20148;-84
2020/12/21 02:29:53;;;;;;;8.75;4.55;;;17.30;62.60;;;;;;5017018;28;20203;-84
2020/12/21 02:32:29;;;;;;;7.55;4.93;;;17.30;62.50;;;;;;5033229;28;20155;-84
2020/12/21 02:34:55;;;;;;;8.15;4.97;;;17.30;62.40;;;;;;5017374;28;20222;-85
2020/12/21 02:37:23;;;;;;;7.50;4.25;;;17.30;62.50;;;;;;5001572;28;20172;-85
2020/12/21 02:39:50;;;;;;;7.28;4.72;;;17.30;62.60;;;;;;5017046;28;20167;-85
2020/12/21 02:42:24;;;;;;;9.27;5.15;;;17.30;62.40;;;;;;5001164;28;20310;-85
2020/12/21 02:44:51;;;;;;;7.47;4.72;;;17.30;62.50;;;;;;5033466;28;20236;-85
2020/12/21 02:47:25;;;;;;;9.02;5.15;;;17.30;62.30;;;;;;5000188;28;20168;-85
2020/12/21 02:49:51;;;;;;;8.23;4.72;;;17.30;62.60;;;;;;5016521;28;20250;-84
2020/12/21 02:52:20;;;;;;;8.50;4.60;;;17.30;62.40;;;;;;5000748;28;20180;-84
2020/12/21 02:54:53;;;;;;;7.55;4.65;;;17.30;62.40;;;;;;5016844;28;20235;-84
2020/12/21 02:57:26;;;;;;;8.80;4.47;;;17.30;62.40;;;;;;5017653;28;20178;-85
2020/12/21 02:59:54;;;;;;;7.82;4.85;;;17.20;62.40;;;;;;5032769;28;20556;-85
2020/12/21 03:02:25;;;;;;;8.23;4.97;;;17.30;62.50;;;;;;4999499;28;20175;-84
2020/12/21 03:04:53;;;;;;;7.60;4.40;;;17.30;62.50;;;;;;5015756;28;20167;-84
2020/12/21 03:07:21;;;;;;;6.78;4.25;;;17.30;62.30;;;;;;5016110;28;20160;-84
2020/12/21 03:09:51;;;;;;;7.28;4.65;;;17.30;62.70;;;;;;5015581;28;20175;-85
2020/12/21 03:12:18;;;;;;;7.25;4.60;;;17.30;63.40;;;;;;5015007;28;20243;-84
2020/12/21 03:14:45;;;;;;;8.40;4.85;;;17.30;62.50;;;;;;4999519;28;20218;-85
2020/12/21 03:17:13;;;;;;;7.75;4.65;;;17.40;62.50;;;;;;4999392;28;20207;-83
2020/12/21 03:19:40;;;;;;;6.78;4.60;;;17.40;62.30;;;;;;5031225;28;20170;-85
2020/12/21 03:22:18;;;;;;;7.90;4.85;;;17.30;62.40;;;;;;5000113;28;20186;-86
2020/12/21 03:24:56;;;;;;;9.18;4.97;;;17.40;62.40;;;;;;4999692;28;20249;-85
2020/12/21 03:27:27;;;;;;;6.70;4.50;;;17.40;63.20;;;;;;4984133;28;20177;-84
2020/12/21 03:29:54;;;;;;;9.40;5.18;;;17.30;62.40;;;;;;5022422;28;20170;-84
2020/12/21 03:32:22;;;;;;;7.28;4.65;;;17.30;62.40;;;;;;5021551;28;20147;-85
2020/12/21 03:34:48;;;;;;;9.20;5.07;;;17.30;62.50;;;;;;5025632;28;20199;-85
2020/12/21 03:37:15;;;;;;;7.10;4.82;;;17.30;62.50;;;;;;5061478;28;20180;-84
2020/12/21 03:39:44;;;;;;;9.27;4.70;;;17.30;62.40;;;;;;5061805;28;20185;-85
2020/12/21 03:42:13;;;;;;;9.60;5.00;;;17.30;62.40;;;;;;5045415;28;20698;-85
2020/12/21 03:44:41;;;;;;;8.40;4.57;;;17.30;62.30;;;;;;5045993;28;20162;-85
2020/12/21 03:47:11;;;;;;;7.20;4.30;;;17.20;62.40;;;;;;5061947;28;20209;-85
2020/12/21 03:49:43;;;;;;;7.97;4.38;;;17.30;62.50;;;;;;5045378;28;20173;-85
2020/12/21 03:52:19;;;;;;;8.23;4.82;;;17.30;62.90;;;;;;5045582;28;20173;-84
2020/12/21 03:54:46;;;;;;;7.10;4.47;;;17.20;62.70;;;;;;5046292;28;20184;-85
2020/12/21 03:57:18;;;;;;;6.50;4.07;;;17.20;62.70;;;;;;5062202;28;20183;-85
2020/12/21 03:59:59;;;;;;;9.45;4.70;;;17.20;62.50;;;;;;5062053;28;20158;-85
2020/12/21 04:02:28;;;;;;;7.07;4.68;;;17.30;62.60;;;;;;5061823;28;20648;-84
2020/12/21 04:04:57;;;;;;;7.32;4.85;;;17.30;62.40;;;;;;5045109;28;20177;-85
2020/12/21 04:07:27;;;;;;;7.88;4.80;;;17.30;62.50;;;;;;5061593;28;20173;-85
2020/12/21 04:09:58;;;;;;;8.38;4.60;;;17.30;62.60;;;;;;5046190;28;20218;-85
2020/12/21 04:12:30;;;;;;;8.88;4.88;;;17.30;62.50;;;;;;5063066;28;20154;-85
2020/12/21 04:15:07;;;;;;;8.65;4.68;;;17.30;62.70;;;;;;5061797;28;20261;-85
2020/12/21 04:17:37;;;;;;;9.93;4.82;;;17.20;62.70;;;;;;5061613;28;20173;-85
2020/12/21 04:20:11;;;;;;;7.22;4.85;;;17.30;62.60;;;;;;5045764;28;20205;-85
2020/12/21 04:22:38;;;;;;;8.50;4.88;;;17.30;62.40;;;;;;5045302;28;20612;-85
2020/12/21 04:25:05;;;;;;;7.80;4.30;;;17.30;62.60;;;;;;5045826;28;20196;-85
2020/12/21 04:27:31;;;;;;;7.63;4.68;;;17.30;62.70;;;;;;5045047;28;20256;-85
2020/12/21 04:30:07;;;;;;;8.57;5.30;;;17.30;62.70;;;;;;5045524;28;20160;-85
2020/12/21 04:32:33;;;;;;;8.85;4.85;;;17.30;62.70;;;;;;5046019;28;20174;-85
2020/12/21 04:35:02;;;;;;;6.75;4.22;;;17.30;62.50;;;;;;5041260;28;20254;-85
2020/12/21 04:37:57;;;;;;;7.28;4.40;;;17.30;62.50;;;;;;5025095;28;20187;-84
2020/12/21 04:40:25;;;;;;;7.15;4.50;;;17.30;62.50;;;;;;5001521;28;20207;-84
2020/12/21 04:42:56;;;;;;;7.28;4.80;;;17.30;62.50;;;;;;4985959;28;20238;-84
2020/12/21 04:45:23;;;;;;;7.90;4.38;;;17.30;62.60;;;;;;5021038;28;20236;-85
2020/12/21 04:47:57;;;;;;;6.47;4.20;;;17.30;62.70;;;;;;5005247;28;20167;-85
2020/12/21 04:50:30;;;;;;;6.50;4.35;;;17.30;62.40;;;;;;5037406;28;20201;-84
2020/12/21 04:52:58;;;;;;;8.50;4.88;;;17.30;62.10;;;;;;5005216;28;20174;-85
2020/12/21 04:55:24;;;;;;;6.97;4.45;;;17.30;62.30;;;;;;5005051;28;20182;-84
2020/12/21 04:58:04;;;;;;;6.55;4.50;;;17.30;61.80;;;;;;5037725;28;20213;-85
2020/12/21 05:00:31;;;;;;;8.75;4.20;;;17.40;61.50;;;;;;5004983;28;20217;-85
2020/12/21 05:03:00;;;;;;;6.47;3.78;;;17.40;61.20;;;;;;5004927;28;20151;-85
2020/12/21 05:05:39;;;;;;;6.15;4.35;;;17.50;61.00;;;;;;5024008;28;20213;-84
2020/12/21 05:08:23;;;;;;;7.07;4.45;;;17.50;61.10;;;;;;5021816;28;20270;-85
2020/12/21 05:11:00;;;;;;;6.95;3.83;;;17.40;61.40;;;;;;5022355;28;20170;-85
2020/12/21 05:13:35;;;;;;;6.80;4.25;;;17.40;61.40;;;;;;5054664;28;20205;-85
2020/12/21 05:16:02;;;;;;;8.27;4.03;;;17.50;60.90;;;;;;5038343;28;20192;-85
2020/12/21 05:18:32;;;;;;;6.82;4.53;;;17.50;60.70;;;;;;5021828;28;20171;-85
2020/12/21 05:21:10;;;;;;;6.78;4.15;;;17.50;61.20;;;;;;5054301;28;20685;-84
2020/12/21 05:23:55;;;;;;;5.70;4.10;;;17.50;60.80;;;;;;5021699;28;20246;-86
2020/12/21 05:26:33;;;;;;;7.70;4.32;;;17.50;60.90;;;;;;5054452;28;20163;-83
2020/12/21 05:29:02;;;;;;;6.72;4.40;;;17.40;60.90;;;;;;5054963;28;20151;-85
2020/12/21 05:31:28;;;;;;;6.30;3.95;;;17.50;60.80;;;;;;5054152;28;20213;-85
2020/12/21 05:33:58;;;;;;;7.07;4.32;;;17.50;60.50;;;;;;5020904;28;20190;-85
2020/12/21 05:36:32;;;;;;;5.82;3.85;;;17.50;60.90;;;;;;5054088;28;20226;-85
2020/12/21 05:39:09;;;;;;;6.60;3.78;;;17.40;60.70;;;;;;5038871;28;20162;-85
2020/12/21 05:41:38;;;;;;;7.45;3.95;;;17.50;60.40;;;;;;5038058;28;20255;-86
2020/12/21 05:44:04;;;;;;;6.43;4.40;;;17.50;60.40;;;;;;5054095;28;20185;-85
2020/12/21 05:46:32;;;;;;;6.32;4.32;;;17.50;60.80;;;;;;5021837;28;20167;-85
2020/12/21 05:49:15;;;;;;;6.53;3.72;;;17.40;60.90;;;;;;5022811;28;20157;-85
2020/12/21 05:51:42;;;;;;;5.45;3.90;;;17.50;60.50;;;;;;5016822;28;20191;-85
2020/12/21 05:54:19;;;;;;;6.78;3.65;;;17.50;60.50;;;;;;5017634;28;20244;-85
2020/12/21 05:56:46;;;;;;;6.10;4.00;;;17.60;60.20;;;;;;5002334;28;20210;-85
2020/12/21 05:59:14;;;;;;;6.25;3.80;;;17.60;60.10;;;;;;5001610;28;20167;-85
2020/12/21 06:01:47;;;;;;;5.70;3.97;;;17.60;60.20;;;;;;5002035;28;20195;-85
2020/12/21 06:04:19;;;;;;;7.63;4.15;;;17.60;59.90;;;;;;5002393;28;20191;-85
2020/12/21 06:06:53;;;;;;;5.63;3.53;;;17.50;60.50;;;;;;5018447;28;20198;-85
2020/12/21 06:09:20;;;;;;;6.57;3.97;;;17.50;59.80;;;;;;5001621;28;20191;-85
2020/12/21 06:11:47;;;;;;;6.65;4.00;;;17.50;60.30;;;;;;5001752;28;20170;-86
2020/12/21 06:14:35;;;;;;;8.18;4.28;;;17.50;60.50;;;;;;5001810;28;20167;-85
2020/12/21 06:17:12;;;;;;;6.00;3.95;;;17.40;60.50;;;;;;5001939;28;20213;-84
2020/12/21 06:19:48;;;;;;;5.60;3.92;;;17.50;60.40;;;;;;5002308;28;20250;-85
2020/12/21 06:22:26;;;;;;;5.30;3.90;;;17.50;60.10;;;;;;5018153;28;20190;-86
2020/12/21 06:25:07;;;;;;;5.70;3.83;;;17.50;60.30;;;;;;5002603;28;20167;-85
2020/12/21 06:27:45;;;;;;;7.75;4.20;;;17.50;60.10;;;;;;5001824;28;20167;-85
2020/12/21 06:30:17;;;;;;;6.28;4.03;;;17.60;60.00;;;;;;5022013;28;20193;-85
2020/12/21 06:32:46;;;;;;;5.80;3.88;;;17.50;60.40;;;;;;5022457;28;20146;-85
2020/12/21 06:35:19;;;;;;;6.75;3.92;;;17.50;59.80;;;;;;5023051;28;20223;-85
2020/12/21 06:37:59;;;;;;;4.47;3.78;;;17.50;60.10;;;;;;5038446;28;20178;-85
2020/12/21 06:40:31;;;;;;;5.90;3.80;;;17.50;59.60;;;;;;5037827;28;20194;-85
2020/12/21 06:43:17;;;;;;;5.85;3.95;;;17.50;60.00;;;;;;5037338;28;20171;-83
2020/12/21 06:45:53;;;;;;;6.40;3.90;;;17.50;59.90;;;;;;5020979;28;20214;-84
2020/12/21 06:48:26;;;;;;;5.70;4.10;;;17.50;59.30;;;;;;5037377;28;20197;-85
2020/12/21 06:50:53;;;;;;;5.90;3.97;;;17.60;59.80;;;;;;5036864;28;20217;-83
2020/12/21 06:53:31;;;;;;;5.70;3.80;;;17.50;59.80;;;;;;5003053;28;20257;-85
2020/12/21 06:56:13;;;;;;;5.32;3.60;;;17.50;59.70;;;;;;5020110;28;20166;-84
2020/12/21 06:58:41;;;;;;;4.80;3.50;;;17.60;59.20;;;;;;5052982;28;20174;-84
2020/12/21 07:01:08;;;;;;;5.15;3.70;;;17.60;59.10;;;;;;5036276;28;20197;-85
2020/12/21 07:03:38;;;;;;;5.82;4.13;;;17.60;59.00;;;;;;5035502;28;20171;-84
2020/12/21 07:06:15;;;;;;;5.35;3.90;;;17.60;59.50;;;;;;5052907;28;20165;-85
2020/12/21 07:08:50;;;;;;;5.78;3.67;;;17.60;59.40;;;;;;5037240;28;20185;-85
2020/12/21 07:11:25;;;;;;;5.53;3.85;;;17.50;59.50;;;;;;5054034;28;20193;-85
2020/12/21 07:13:58;;;;;;;5.45;3.58;;;17.60;59.10;;;;;;5021714;28;20161;-84
2020/12/21 07:16:32;;;;;;;5.85;3.97;;;17.50;59.40;;;;;;5053171;28;20162;-85
2020/12/21 07:19:02;;;;;;;4.45;3.60;;;17.60;59.20;;;;;;5053627;28;20154;-84
2020/12/21 07:21:32;;;;;;;5.65;3.97;;;17.50;59.50;;;;;;5036755;28;20217;-84
2020/12/21 07:24:01;;;;;;;5.82;3.53;;;17.50;59.90;;;;;;5021242;28;20154;-84
2020/12/21 07:26:32;;;;;;;4.35;3.53;;;17.50;59.30;;;;;;5036751;28;20175;-85
2020/12/21 07:29:04;;;;;;;4.90;3.85;;;17.50;59.70;;;;;;5037549;28;20170;-84
2020/12/21 07:31:32;;;;;;;5.78;3.47;;;17.60;59.40;;;;;;5036622;28;20170;-84
2020/12/21 07:34:20;;;;;;;4.55;3.47;;;17.50;59.70;;;;;;5020350;28;20193;-85
2020/12/21 07:36:49;;;;;;;5.38;3.80;;;17.50;59.00;;;;;;5053029;28;20249;-84
2020/12/21 07:39:18;;;;;;;7.53;4.03;;;17.50;59.20;;;;;;5036701;28;20175;-85
2020/12/21 07:41:53;;;;;;;5.60;3.47;;;17.50;59.50;;;;;;5053873;28;20205;-85
2020/12/21 07:44:31;;;;;;;4.85;3.58;;;17.50;59.00;;;;;;5053132;28;20169;-85
2020/12/21 07:47:07;;;;;;;5.47;3.65;;;17.60;58.80;;;;;;5038563;28;20166;-84
2020/12/21 07:49:40;;;;;;;5.43;3.53;;;17.60;59.00;;;;;;5054326;28;20147;-84
2020/12/21 07:52:15;;;;;;;5.47;3.70;;;17.60;58.80;;;;;;5052926;28;20187;-84
2020/12/21 07:54:46;;;;;;;5.65;3.80;;;17.60;59.10;;;;;;5035651;28;20159;-85
2020/12/21 07:57:28;;;;;;;4.85;3.58;;;17.60;59.00;;;;;;5050163;28;20154;-84
2020/12/21 08:00:00;;;;;;;4.20;3.30;;;17.60;59.20;;;;;;5017689;28;20247;-83
2020/12/21 08:02:28;;;;;;;5.15;3.33;;;17.60;58.90;;;;;;5035776;28;20174;-83
2020/12/21 08:04:57;;;;;;;4.47;3.25;;;17.60;58.70;;;;;;5036092;28;20214;-84
2020/12/21 08:07:35;;;;;;;5.30;3.35;;;17.60;59.10;;;;;;5035956;28;20214;-84
2020/12/21 08:10:03;;;;;;;5.97;3.60;;;17.60;58.70;;;;;;5020979;28;20163;-84
2020/12/21 08:12:32;;;;;;;6.10;3.83;;;17.60;59.20;;;;;;5052589;28;20509;-83
2020/12/21 08:15:09;;;;;;;6.03;3.50;;;17.50;59.20;;;;;;5015092;28;20191;-82
2020/12/21 08:17:40;;;;;;;4.35;3.40;;;17.60;58.90;;;;;;5055824;28;20166;-81
2020/12/21 08:20:07;;;;;;;4.20;3.30;;;17.70;58.70;;;;;;5040409;28;20179;-81
2020/12/21 08:22:36;;;;;;;4.82;3.42;;;17.60;58.40;;;;;;5039559;28;20155;-83
2020/12/21 08:25:09;;;;;;;8.02;3.60;;;17.70;58.40;;;;;;5037896;28;20161;-80
2020/12/21 08:27:43;;;;;;;5.13;3.40;;;17.70;58.50;;;;;;5026021;28;20182;-80
2020/12/21 08:30:13;;;;;;;5.22;3.75;;;17.70;58.30;;;;;;5023262;28;20167;-82
2020/12/21 08:32:38;;;;;;;5.22;3.85;;;17.70;58.40;;;;;;5028632;28;20161;-85
2020/12/21 08:35:04;;;;;;;4.47;3.40;;;17.70;58.30;;;;;;5018019;28;20210;-84
2020/12/21 08:37:39;;;;;;;4.35;3.50;;;17.70;58.20;;;;;;5019490;28;20181;-84
2020/12/21 08:40:33;;;;;;;5.60;3.83;;;17.70;58.30;;;;;;5035581;28;20242;-84
2020/12/21 08:43:07;;;;;;;4.70;3.40;;;17.70;58.30;;;;;;5056123;28;20158;-81
2020/12/21 08:45:43;;;;;;;4.88;3.47;;;17.70;58.00;;;;;;5023262;28;20622;-83
2020/12/21 08:48:09;;;;;;;4.70;3.38;;;17.70;57.90;;;;;;5034354;28;20170;-82
2020/12/21 08:50:36;;;;;;;5.35;3.70;;;17.70;57.50;;;;;;5043600;28;20177;-85
2020/12/21 08:53:03;;;;;;;4.35;3.10;;;17.70;58.10;;;;;;5025671;28;20170;-82
2020/12/21 08:55:29;;;;;;;4.30;3.28;;;17.70;57.90;;;;;;5025061;28;20166;-83
2020/12/21 08:58:02;;;;;;;4.40;3.50;;;17.80;57.50;;;;;;5045224;28;20159;-84
2020/12/21 09:00:36;;;;;;;4.18;3.10;;;17.80;58.10;;;;;;5039786;28;20249;-81
2020/12/21 09:03:03;;;;;;;4.88;3.45;;;17.70;58.10;;;;;;5026127;28;20169;-81
2020/12/21 09:05:29;;;;;;;3.88;3.17;;;17.70;58.00;;;;;;5027017;28;20163;-81
2020/12/21 09:07:55;;;;;;;3.90;3.20;;;17.80;57.30;;;;;;5043398;28;20175;-82
2020/12/21 09:10:21;;;;;;;4.95;3.10;;;17.90;57.20;;;;;;5038511;28;20220;-83
2020/12/21 09:12:47;;;;;;;4.72;3.20;;;17.90;57.80;;;;;;5020958;28;20241;-83
2020/12/21 09:15:12;;;;;;;4.18;3.33;;;17.90;57.20;;;;;;5037298;28;20151;-83
2020/12/21 09:17:38;;;;;;;3.88;3.20;;;18.00;57.00;;;;;;5040845;28;20158;-83
2020/12/21 09:20:04;;;;;;;4.03;3.22;;;18.00;57.10;;;;;;5039574;28;20174;-82
2020/12/21 09:22:29;;;;;;;4.18;3.38;;;18.00;57.50;;;;;;5040818;28;20170;-84
2020/12/21 09:24:55;;;;;;;4.80;3.40;;;18.00;57.50;;;;;;5040511;28;20159;-82
2020/12/21 09:27:20;;;;;;;4.57;3.25;;;18.00;58.20;;;;;;5036917;28;20217;-83
2020/12/21 09:29:46;;;;;;;4.82;3.45;;;18.00;57.30;;;;;;5038165;28;20693;-84
2020/12/21 09:32:13;;;;;;;4.78;3.30;;;17.90;57.20;;;;;;5038957;28;20167;-83
2020/12/21 09:34:39;;;;;;;3.78;3.05;;;17.90;57.40;;;;;;5039599;28;20143;-82
2020/12/21 09:37:04;;;;;;;3.60;3.00;;;17.90;57.10;;;;;;5058378;28;20697;-83
2020/12/21 09:39:30;;;;;;;3.75;2.85;;;17.90;57.50;;;;;;5024569;28;20170;-82
2020/12/21 09:41:56;;;;;;;4.50;3.50;;;17.90;57.20;;;;;;5030533;28;20197;-85
2020/12/21 09:44:22;;;;;;;4.47;3.20;;;18.00;57.10;;;;;;5044918;28;20162;-83
2020/12/21 09:46:50;;;;;;;4.43;3.20;;;18.00;57.00;;;;;;5060187;28;20162;-81
2020/12/21 09:49:18;;;;;;;5.05;3.85;;;17.90;57.40;;;;;;5065000;28;20162;-86
2020/12/21 09:51:54;;;;;;;4.47;3.40;;;17.90;57.20;;;;;;5047533;28;20170;-85
2020/12/21 09:54:21;;;;;;;3.83;3.08;;;17.90;58.30;;;;;;5014314;28;20184;-85
2020/12/21 09:57:08;;;;;;;3.88;2.88;;;17.80;57.50;;;;;;5015398;28;20158;-83
2020/12/21 09:59:50;;;;;;;5.18;2.97;;;17.90;57.60;;;;;;5047525;28;20169;-83
2020/12/21 10:02:17;;;;;;;4.50;3.25;;;17.90;57.00;;;;;;5031534;28;20216;-84
2020/12/21 10:04:57;;;;;;;4.25;3.28;;;18.00;56.90;;;;;;5030495;28;20681;-83
2020/12/21 10:07:25;;;;;;;4.18;3.22;;;18.00;57.10;;;;;;5064525;28;20162;-84
2020/12/21 10:09:59;;;;;;;4.25;3.20;;;18.00;57.00;;;;;;5030958;28;20158;-83
2020/12/21 10:12:26;;;;;;;4.18;2.92;;;18.00;57.00;;;;;;5046757;28;20158;-83
2020/12/21 10:14:53;;;;;;;3.58;2.97;;;18.00;56.90;;;;;;5059943;28;20156;-81
2020/12/21 10:17:19;;;;;;;3.85;3.15;;;18.00;57.10;;;;;;5057692;28;20162;-82
2020/12/21 10:19:46;;;;;;;4.25;3.00;;;18.00;57.10;;;;;;5041177;28;20158;-82
2020/12/21 10:22:13;;;;;;;4.15;3.17;;;18.00;57.00;;;;;;5044626;28;20272;-84
2020/12/21 10:24:39;;;;;;;3.97;3.28;;;18.00;56.80;;;;;;5013408;28;20259;-84
2020/12/21 10:27:05;;;;;;;4.40;3.20;;;18.00;56.90;;;;;;5030984;28;20158;-84
2020/12/21 10:29:31;;;;;;;3.85;2.92;;;18.00;56.70;;;;;;5013986;28;20539;-83
2020/12/21 10:31:58;;;;;;;5.03;3.10;;;18.00;56.80;;;;;;5029807;28;20178;-83
2020/12/21 10:34:24;;;;;;;3.58;3.10;;;18.00;56.80;;;;;;5043623;28;20522;-82
2020/12/21 10:36:51;;;;;;;4.00;3.10;;;18.00;57.00;;;;;;5010786;28;20712;-81
2020/12/21 10:39:17;;;;;;;3.92;3.25;;;17.90;56.80;;;;;;5026474;28;20659;-82
2020/12/21 10:41:43;;;;;;;4.13;3.20;;;17.90;56.90;;;;;;5010673;28;20194;-84
2020/12/21 10:44:10;;;;;;;4.90;3.17;;;18.00;56.90;;;;;;5011620;28;20624;-84
2020/12/21 10:46:36;;;;;;;4.53;3.47;;;18.00;56.40;;;;;;5042939;28;20165;-83
2020/12/21 10:49:02;;;;;;;6.10;3.50;;;18.00;56.90;;;;;;5010482;28;20755;-83
2020/12/21 10:51:32;;;;;;;3.35;2.83;;;18.00;56.80;;;;;;5011000;28;20174;-83
2020/12/21 10:53:58;;;;;;;5.22;3.28;;;18.00;56.50;;;;;;5043422;28;20165;-83
2020/12/21 10:56:24;;;;;;;4.03;3.22;;;18.00;57.00;;;;;;5028294;28;20208;-84
2020/12/21 10:58:50;;;;;;;6.50;3.47;;;18.00;57.10;;;;;;5012144;28;20265;-83
2020/12/21 11:01:17;;;;;;;5.25;2.95;;;18.00;56.80;;;;;;5027527;28;20225;-84
2020/12/21 11:03:44;;;;;;;5.28;3.25;;;18.10;56.30;;;;;;5028405;28;20235;-80
2020/12/21 11:06:11;;;;;;;5.18;3.22;;;18.10;56.50;;;;;;5044525;28;20580;-84
2020/12/21 11:08:37;;;;;;;4.03;2.88;;;18.20;56.60;;;;;;5026506;28;20553;-83
2020/12/21 11:11:04;;;;;;;4.43;3.20;;;18.20;56.10;;;;;;5027264;28;20165;-84
2020/12/21 11:13:31;;;;;;;5.88;2.80;;;18.20;56.40;;;;;;5024725;28;20159;-83
2020/12/21 11:15:57;;;;;;;6.15;3.00;;;18.20;56.30;;;;;;5009967;28;20167;-83
2020/12/21 11:18:24;;;;;;;5.53;3.00;;;18.20;56.40;;;;;;5040656;28;20186;-84
2020/12/21 11:20:58;;;;;;;4.50;2.78;;;18.10;56.60;;;;;;5042947;28;20255;-82
2020/12/21 11:23:24;;;;;;;5.75;3.17;;;18.10;56.20;;;;;;5043560;28;20188;-82
2020/12/21 11:25:51;;;;;;;8.05;3.00;;;18.20;56.10;;;;;;5026956;28;20214;-84
2020/12/21 11:28:16;;;;;;;4.57;3.20;;;18.20;56.20;;;;;;5045166;28;20170;-82
2020/12/21 11:30:43;;;;;;;4.53;3.10;;;18.20;56.70;;;;;;5042791;28;20164;-82
2020/12/21 11:33:08;;;;;;;5.75;3.00;;;18.10;56.50;;;;;;5061956;28;20158;-84
2020/12/21 11:35:34;;;;;;;4.97;2.95;;;18.10;56.40;;;;;;5026975;28;20660;-81
2020/12/21 11:38:00;;;;;;;8.57;3.15;;;18.10;56.40;;;;;;5042469;28;20193;-82
2020/12/21 11:40:26;;;;;;;7.13;3.42;;;18.10;56.40;;;;;;5044835;28;20225;-83
2020/12/21 11:42:52;;;;;;;6.35;3.08;;;18.20;56.40;;;;;;5014399;28;20162;-81
2020/12/21 11:45:23;;;;;;;5.57;2.85;;;18.10;56.30;;;;;;5029085;28;20637;-81
2020/12/21 11:47:50;;;;;;;6.57;3.30;;;18.10;56.00;;;;;;5030161;28;20151;-82
2020/12/21 11:50:16;;;;;;;8.05;2.75;;;18.10;56.30;;;;;;5051654;28;20219;-82
2020/12/21 11:52:44;;;;;;;4.82;2.85;;;18.20;55.70;;;;;;5053925;28;20159;-82
2020/12/21 11:55:10;;;;;;;6.13;2.97;;;18.20;55.80;;;;;;5039207;28;20170;-81
2020/12/21 11:57:37;;;;;;;4.40;3.05;;;18.20;56.30;;;;;;5026108;28;20167;-82
2020/12/21 12:00:05;;;;;;;3.63;2.47;;;18.10;56.40;;;;;;5043646;28;20154;-82
2020/12/21 12:02:34;;;;;;;5.22;3.10;;;18.10;56.00;;;;;;5042319;28;20219;-83
2020/12/21 12:05:11;;;;;;;6.47;3.25;;;18.10;56.40;;;;;;5040453;28;20193;-82
2020/12/21 12:07:40;;;;;;;4.30;2.97;;;18.10;56.60;;;;;;5037646;28;20186;-82
2020/12/21 12:10:13;;;;;;;5.22;3.15;;;18.10;56.00;;;;;;5041643;28;20174;-83
2020/12/21 12:12:43;;;;;;;4.53;2.95;;;18.10;56.40;;;;;;5022997;28;20189;-82
2020/12/21 12:15:09;;;;;;;4.80;3.13;;;18.10;55.90;;;;;;5039620;28;20155;-81
2020/12/21 12:17:36;;;;;;;3.63;2.92;;;18.20;55.70;;;;;;5054544;28;20151;-82
2020/12/21 12:20:05;;;;;;;6.15;3.00;;;18.10;56.30;;;;;;5036856;28;20262;-82
2020/12/21 12:22:34;;;;;;;5.55;2.97;;;18.10;56.10;;;;;;5033092;28;20201;-82
2020/12/21 12:25:02;;;;;;;5.20;3.05;;;18.10;55.80;;;;;;5033304;28;20170;-82
2020/12/21 12:27:31;;;;;;;4.25;2.90;;;18.20;55.80;;;;;;5026801;28;20166;-82
2020/12/21 12:30:00;;;;;;;4.13;3.00;;;18.10;55.70;;;;;;5041143;28;20270;-82
2020/12/21 12:32:58;;;;;;;3.70;3.00;;;18.10;56.20;;;;;;5037041;28;20182;-81
2020/12/21 12:35:24;;;;;;;4.93;2.97;;;18.10;55.80;;;;;;4962350;29;20250;-81
2020/12/21 12:38:12;;;;;;;6.93;3.17;;;18.10;56.30;;;;;;4948358;29;20177;-82
2020/12/21 12:40:47;;;;;;;5.15;2.90;;;18.10;55.80;;;;;;4948211;29;20233;-82
2020/12/21 12:43:37;;;;;;;4.20;2.90;;;18.10;55.80;;;;;;4962522;29;20169;-82
2020/12/21 12:46:24;;;;;;;5.53;3.10;;;18.20;55.50;;;;;;4961621;29;20181;-83
2020/12/21 12:49:01;;;;;;;3.72;2.70;;;18.10;55.60;;;;;;4962160;29;20170;-82
2020/12/21 12:51:28;;;;;;;5.65;3.15;;;18.10;55.70;;;;;;4938096;29;20177;-81
2020/12/21 12:53:56;;;;;;;4.05;2.90;;;18.10;55.70;;;;;;4957474;29;20193;-81
2020/12/21 12:56:37;;;;;;;4.15;2.70;;;18.10;55.70;;;;;;4956214;29;20166;-80
2020/12/21 12:59:17;;;;;;;6.80;2.80;;;18.10;55.60;;;;;;4958404;29;20181;-82
2020/12/21 13:01:45;;;;;;;3.90;3.30;;;18.10;55.40;;;;;;4945249;29;20205;-81
2020/12/21 13:04:19;;;;;;;5.05;2.78;;;18.20;55.10;;;;;;4940991;29;20178;-82